createdAt,value
2023-01-18T00:00:21.175Z,12.77
2023-01-18T00:03:23.503Z,16.15
2023-01-18T00:06:27.925Z,12.88
2023-01-18T00:09:30.135Z,17.80
2023-01-18T00:12:33.863Z,15.25
2023-01-18T00:15:36.748Z,14.75
2023-01-18T00:18:38.940Z,12.70
2023-01-18T00:21:41.273Z,15.48
2023-01-18T00:24:43.381Z,15.82
2023-01-18T00:27:51.823Z,14.90
2023-01-18T00:30:54.102Z,14.45
2023-01-18T00:33:56.296Z,15.18
2023-01-18T00:36:58.575Z,16.15
2023-01-18T00:40:01.051Z,15.35
2023-01-18T00:43:21.662Z,14.13
2023-01-18T00:46:27.512Z,13.05
2023-01-18T00:49:29.738Z,14.35
2023-01-18T00:52:33.819Z,14.88
2023-01-18T00:55:35.943Z,14.80
2023-01-18T00:58:38.178Z,16.60
2023-01-18T01:01:40.423Z,14.55
2023-01-18T01:05:01.481Z,14.68
2023-01-18T01:08:04.795Z,13.65
2023-01-18T01:11:12.032Z,13.88
2023-01-18T01:14:32.942Z,14.65
2023-01-18T01:17:56.143Z,14.05
2023-01-18T01:21:16.687Z,15.98
2023-01-18T01:24:37.351Z,13.07
2023-01-18T01:27:39.493Z,15.90
2023-01-18T01:30:41.763Z,15.27
2023-01-18T01:33:45.184Z,15.20
2023-01-18T01:36:47.351Z,13.90
2023-01-18T01:39:49.497Z,15.35
2023-01-18T01:42:51.689Z,13.90
2023-01-18T01:45:53.927Z,16.35
2023-01-18T01:49:07.367Z,16.13
2023-01-18T01:52:11.397Z,14.90
2023-01-18T01:55:23.452Z,14.20
2023-01-18T01:58:29.639Z,16.60
2023-01-18T02:01:32.424Z,15.95
2023-01-18T02:04:35.374Z,15.32
2023-01-18T02:07:37.675Z,16.58
2023-01-18T02:10:40.357Z,15.35
2023-01-18T02:13:42.618Z,17.83
2023-01-18T02:16:44.788Z,17.23
2023-01-18T02:19:46.991Z,17.83
2023-01-18T02:23:24.625Z,17.45
2023-01-18T02:26:44.384Z,17.45
2023-01-18T02:30:11.740Z,17.33
2023-01-18T02:33:29.179Z,17.33
2023-01-18T02:36:42.288Z,19.52
2023-01-18T02:40:06.359Z,18.02
2023-01-18T02:43:29.239Z,16.05
2023-01-18T02:46:36.395Z,16.48
2023-01-18T02:49:38.651Z,18.17
2023-01-18T02:52:42.170Z,18.27
2023-01-18T02:55:49.637Z,18.25
2023-01-18T02:58:59.269Z,18.95
2023-01-18T03:02:20.866Z,16.92
2023-01-18T03:05:24.680Z,18.63
2023-01-18T03:08:46.275Z,17.52
2023-01-18T03:12:03.208Z,17.70
2023-01-18T03:15:14.040Z,17.92
2023-01-18T03:18:22.228Z,18.58
2023-01-18T03:21:24.913Z,19.67
2023-01-18T03:24:30.487Z,19.13
2023-01-18T03:27:51.462Z,20.58
2023-01-18T03:31:16.469Z,18.05
2023-01-18T03:34:30.229Z,18.92
2023-01-18T03:37:40.125Z,18.52
2023-01-18T03:40:42.414Z,19.02
2023-01-18T03:43:47.136Z,19.95
2023-01-18T03:46:49.626Z,16.00
2023-01-18T03:49:52.060Z,19.27
2023-01-18T03:52:59.534Z,17.52
2023-01-18T03:56:06.984Z,18.77
2023-01-18T03:59:09.330Z,19.83
2023-01-18T04:02:11.773Z,17.27
2023-01-18T04:05:14.855Z,17.95
2023-01-18T04:08:17.039Z,19.75
2023-01-18T04:11:19.623Z,18.50
2023-01-18T04:14:21.684Z,18.05
2023-01-18T04:17:23.811Z,18.52
2023-01-18T04:20:26.015Z,19.40
2023-01-18T04:23:28.613Z,20.23
2023-01-18T04:26:30.890Z,20.23
2023-01-18T04:29:33.054Z,19.25
2023-01-18T04:32:35.153Z,20.98
2023-01-18T04:35:37.324Z,21.65
2023-01-18T04:38:39.432Z,23.27
2023-01-18T04:41:41.720Z,24.77
2023-01-18T04:44:43.934Z,21.45
2023-01-18T04:47:46.536Z,22.13
2023-01-18T04:50:48.869Z,20.42
2023-01-18T04:53:51.806Z,22.10
2023-01-18T04:56:54.079Z,24.55
2023-01-18T04:59:56.260Z,22.95
2023-01-18T05:02:58.796Z,21.73
2023-01-18T05:06:01.231Z,22.25
2023-01-18T05:09:03.720Z,22.02
2023-01-18T05:12:06.111Z,20.42
2023-01-18T05:15:08.932Z,24.85
2023-01-18T05:18:11.129Z,21.30
2023-01-18T05:21:13.797Z,24.85
2023-01-18T05:24:16.061Z,21.38
2023-01-18T05:27:18.276Z,22.58
2023-01-18T05:30:20.582Z,24.63
2023-01-18T05:33:23.521Z,24.75
2023-01-18T05:36:25.706Z,26.38
2023-01-18T05:39:27.922Z,25.17
2023-01-18T05:42:30.058Z,22.52
2023-01-18T05:45:32.222Z,23.33
2023-01-18T05:48:34.624Z,24.70
2023-01-18T05:51:36.805Z,24.08
2023-01-18T05:54:39.032Z,24.73
2023-01-18T05:57:41.255Z,27.10
2023-01-18T06:00:43.376Z,25.45
2023-01-18T06:03:45.485Z,27.42
2023-01-18T06:06:47.689Z,28.13
2023-01-18T06:09:49.920Z,28.42
2023-01-18T06:12:52.213Z,29.40
2023-01-18T06:15:55.307Z,28.95
2023-01-18T06:18:57.398Z,30.30
2023-01-18T06:21:59.466Z,27.58
2023-01-18T06:25:01.625Z,30.80
2023-01-18T06:28:05.294Z,25.90
2023-01-18T06:31:08.535Z,28.52
2023-01-18T06:34:10.756Z,32.00
2023-01-18T06:37:13.462Z,33.05
2023-01-18T06:40:15.920Z,31.17
2023-01-18T06:43:18.084Z,27.48
2023-01-18T06:46:20.490Z,29.65
2023-01-18T06:49:22.669Z,33.72
2023-01-18T06:52:24.878Z,29.02
2023-01-18T06:55:26.997Z,29.33
2023-01-18T06:58:32.894Z,30.00
2023-01-18T07:01:35.236Z,30.50
2023-01-18T07:04:44.193Z,28.55
2023-01-18T07:07:46.512Z,31.52
2023-01-18T07:10:49.069Z,30.83
2023-01-18T07:13:51.989Z,30.10
2023-01-18T07:16:54.259Z,32.20
2023-01-18T07:19:56.512Z,31.83
2023-01-18T07:22:59.076Z,28.00
2023-01-18T07:26:06.814Z,29.10
2023-01-18T07:29:09.246Z,29.83
2023-01-18T07:32:11.355Z,29.80
2023-01-18T07:35:13.571Z,34.40
2023-01-18T07:38:15.743Z,30.95
2023-01-18T07:41:18.099Z,32.78
2023-01-18T07:44:20.544Z,31.38
2023-01-18T07:47:22.614Z,34.50
2023-01-18T07:50:24.766Z,33.45
2023-01-18T07:53:28.235Z,28.35
2023-01-18T07:56:30.761Z,31.42
2023-01-18T07:59:33.656Z,31.95
2023-01-18T08:02:35.834Z,31.30
2023-01-18T08:05:38.223Z,31.20
2023-01-18T08:08:40.711Z,32.05
2023-01-18T08:11:42.985Z,33.85
2023-01-18T08:14:46.050Z,35.15
2023-01-18T08:17:51.290Z,31.90
2023-01-18T08:20:55.167Z,32.40
2023-01-18T08:23:57.482Z,31.73
2023-01-18T08:26:59.642Z,30.98
2023-01-18T08:30:01.810Z,29.48
2023-01-18T08:33:04.406Z,33.47
2023-01-18T08:36:10.566Z,30.42
2023-01-18T08:39:13.738Z,30.45
2023-01-18T08:42:16.086Z,27.85
2023-01-18T08:45:18.367Z,29.77
2023-01-18T08:48:20.588Z,30.77
2023-01-18T08:51:25.996Z,33.17
2023-01-18T08:54:28.311Z,30.27
2023-01-18T08:57:30.889Z,30.63
2023-01-18T09:00:33.273Z,30.83
2023-01-18T09:03:35.952Z,31.95
2023-01-18T09:06:38.160Z,30.85
2023-01-18T09:09:40.373Z,28.85
2023-01-18T09:12:42.637Z,31.58
2023-01-18T09:15:47.028Z,30.52
2023-01-18T09:18:50.484Z,32.40
2023-01-18T09:21:52.651Z,31.95
2023-01-18T09:24:54.845Z,32.65
2023-01-18T09:27:57.032Z,31.70
2023-01-18T09:31:11.024Z,32.10
2023-01-18T09:34:19.176Z,31.25
2023-01-18T09:37:22.030Z,31.45
2023-01-18T09:40:46.316Z,29.60
2023-01-18T09:43:51.534Z,31.23
2023-01-18T09:46:58.294Z,27.10
2023-01-18T09:50:06.443Z,29.50
2023-01-18T09:53:18.887Z,31.00
2023-01-18T09:56:40.688Z,28.35
2023-01-18T10:00:00.947Z,28.92
2023-01-18T10:06:17.766Z,33.47
2023-01-18T10:09:26.527Z,32.80
2023-01-18T10:12:31.865Z,27.25
2023-01-18T10:15:37.032Z,32.20
2023-01-18T10:18:45.832Z,29.58
2023-01-18T10:22:23.437Z,31.65
2023-01-18T10:26:12.856Z,31.58
2023-01-18T10:29:21.341Z,28.48
2023-01-18T10:32:26.040Z,30.92
2023-01-18T10:35:36.665Z,33.10
2023-01-18T10:38:40.998Z,33.25
2023-01-18T10:41:44.080Z,35.67
2023-01-18T10:44:46.256Z,30.25
2023-01-18T10:47:50.080Z,34.75
2023-01-18T10:50:55.875Z,33.33
2023-01-18T10:53:58.477Z,35.42
2023-01-18T10:57:05.261Z,34.22
2023-01-18T11:00:21.510Z,34.72
2023-01-18T11:03:26.429Z,36.38
2023-01-18T11:06:29.871Z,34.95
2023-01-18T11:09:46.603Z,32.45
2023-01-18T11:12:52.295Z,34.08
2023-01-18T11:16:13.830Z,38.50
2023-01-18T11:19:20.037Z,37.17
2023-01-18T11:22:24.016Z,39.67
2023-01-18T11:25:34.887Z,38.45
2023-01-18T11:28:45.899Z,37.08
2023-01-18T11:31:50.238Z,41.00
2023-01-18T11:34:55.280Z,38.60
2023-01-18T11:38:03.124Z,37.78
2023-01-18T11:41:28.182Z,38.85
2023-01-18T11:44:35.145Z,38.53
2023-01-18T11:47:58.610Z,38.45
2023-01-18T11:51:08.566Z,40.25
2023-01-18T11:54:22.932Z,39.75
2023-01-18T11:57:25.246Z,42.25
2023-01-18T12:00:32.118Z,38.10
2023-01-18T12:03:40.332Z,40.65
2023-01-18T12:07:29.983Z,41.85
2023-01-18T12:10:57.536Z,36.60
2023-01-18T12:14:00.004Z,41.75
2023-01-18T12:17:24.221Z,41.50
2023-01-18T12:20:55.743Z,37.95
2023-01-18T12:24:16.177Z,37.50
2023-01-18T12:27:43.918Z,37.92
2023-01-18T12:31:04.891Z,41.85
2023-01-18T12:34:38.552Z,39.80
2023-01-18T12:38:13.502Z,39.63
2023-01-18T12:41:21.928Z,37.92
2023-01-18T12:44:54.658Z,40.83
2023-01-18T12:48:18.808Z,38.47
2023-01-18T12:51:24.087Z,35.72
2023-01-18T12:54:31.651Z,39.58
2023-01-18T12:57:35.159Z,40.63
2023-01-18T13:00:40.425Z,42.00
2023-01-18T13:03:46.307Z,35.88
2023-01-18T13:06:51.851Z,39.85
2023-01-18T13:09:54.761Z,35.00
2023-01-18T13:12:58.291Z,38.30
2023-01-18T13:16:17.356Z,30.88
2023-01-18T13:19:24.889Z,32.92
2023-01-18T13:22:50.822Z,42.53
2023-01-18T13:26:21.393Z,37.65
2023-01-18T13:29:29.726Z,37.70
2023-01-18T13:32:35.721Z,41.90
2023-01-18T13:35:38.444Z,38.28
2023-01-18T13:38:53.380Z,42.03
2023-01-18T13:42:04.487Z,37.67
2023-01-18T13:45:30.566Z,36.97
2023-01-18T13:48:57.508Z,37.42
2023-01-18T13:51:59.869Z,37.55
2023-01-18T13:55:04.007Z,35.05
2023-01-18T13:58:24.502Z,40.08
2023-01-18T14:01:32.707Z,40.92
2023-01-18T14:04:36.387Z,41.63
2023-01-18T14:07:43.779Z,37.15
2023-01-18T14:10:53.285Z,39.78
2023-01-18T14:13:55.445Z,32.87
2023-01-18T14:17:18.219Z,36.70
2023-01-18T14:20:43.038Z,39.25
2023-01-18T14:24:09.689Z,36.10
2023-01-18T14:27:20.209Z,33.30
2023-01-18T14:30:25.923Z,34.65
2023-01-18T14:33:37.557Z,40.00
2023-01-18T14:36:39.776Z,37.78
2023-01-18T14:39:42.126Z,35.90
2023-01-18T14:43:07.658Z,36.33
2023-01-18T14:46:23.292Z,35.17
2023-01-18T14:49:30.391Z,34.30
2023-01-18T14:52:34.608Z,34.47
2023-01-18T14:55:36.829Z,36.55
2023-01-18T14:58:50.588Z,36.72
2023-01-18T15:01:56.507Z,37.42
2023-01-18T15:05:17.184Z,36.03
2023-01-18T15:08:20.375Z,36.90
2023-01-18T15:11:24.238Z,33.35
2023-01-18T15:14:32.612Z,33.30
2023-01-18T15:17:37.028Z,33.75
2023-01-18T15:20:59.327Z,32.95
2023-01-18T15:24:06.779Z,34.80
2023-01-18T15:27:17.971Z,34.40
2023-01-18T15:30:23.617Z,30.50
2023-01-18T15:33:27.605Z,34.35
2023-01-18T15:36:29.891Z,36.20
2023-01-18T15:39:33.504Z,28.42
2023-01-18T15:43:01.477Z,29.30
2023-01-18T15:46:17.026Z,30.05
2023-01-18T15:49:19.303Z,33.03
2023-01-18T15:52:43.817Z,32.97
2023-01-18T15:55:58.727Z,30.92
2023-01-18T15:59:06.836Z,31.02
2023-01-18T16:02:09.119Z,31.88
2023-01-18T16:05:21.828Z,32.58
2023-01-18T16:08:24.488Z,33.35
2023-01-18T16:11:40.651Z,32.40
2023-01-18T16:14:46.353Z,30.60
2023-01-18T16:17:48.683Z,32.28
2023-01-18T16:20:50.910Z,31.38
2023-01-18T16:23:54.108Z,31.60
2023-01-18T16:26:58.528Z,31.77
2023-01-18T16:30:05.562Z,29.98
2023-01-18T16:33:09.973Z,32.70
2023-01-18T16:36:17.793Z,28.67
2023-01-18T16:39:21.092Z,29.88
2023-01-18T16:42:29.612Z,33.70
2023-01-18T16:45:39.338Z,28.70
2023-01-18T16:48:41.533Z,30.65
2023-01-18T16:51:43.799Z,31.23
2023-01-18T16:54:46.367Z,29.42
2023-01-18T16:57:51.431Z,29.92
2023-01-18T17:01:07.321Z,29.88
2023-01-18T17:04:11.686Z,29.00
2023-01-18T17:07:14.257Z,27.65
2023-01-18T17:10:31.286Z,30.90
2023-01-18T17:13:33.431Z,31.13
2023-01-18T17:16:35.657Z,29.67
2023-01-18T17:19:38.154Z,27.85
2023-01-18T17:22:40.358Z,31.63
2023-01-18T17:25:43.654Z,29.00
2023-01-18T17:28:45.866Z,29.63
2023-01-18T17:31:53.352Z,29.05
2023-01-18T17:34:57.097Z,27.50
2023-01-18T17:38:05.338Z,29.15
2023-01-18T17:41:26.852Z,29.83
2023-01-18T17:44:36.781Z,30.52
2023-01-18T17:47:39.615Z,31.33
2023-01-18T17:50:42.498Z,31.23
2023-01-18T17:53:44.777Z,29.45
2023-01-18T17:56:47.522Z,28.08
2023-01-18T17:59:53.063Z,27.52
2023-01-18T18:02:57.597Z,29.13
2023-01-18T18:06:01.240Z,29.60
2023-01-18T18:09:03.983Z,29.02
2023-01-18T18:12:07.312Z,31.58
2023-01-18T18:15:09.884Z,29.80
2023-01-18T18:18:22.810Z,30.13
2023-01-18T18:21:27.363Z,29.92
2023-01-18T18:24:29.590Z,28.60
2023-01-18T18:27:44.702Z,31.17
2023-01-18T18:30:50.097Z,31.40
2023-01-18T18:33:53.811Z,31.48
2023-01-18T18:36:56.870Z,30.10
2023-01-18T18:40:00.268Z,31.50
2023-01-18T18:43:03.912Z,29.17
2023-01-18T18:46:06.649Z,28.08
2023-01-18T18:49:08.880Z,33.83
2023-01-18T18:52:11.147Z,30.83
2023-01-18T18:55:13.607Z,30.92
2023-01-18T18:58:15.898Z,32.22
2023-01-18T19:01:21.391Z,36.90
2023-01-18T19:04:23.824Z,32.15
2023-01-18T19:07:26.147Z,32.28
2023-01-18T19:10:30.527Z,32.50
2023-01-18T19:13:32.805Z,33.70
2023-01-18T19:16:36.897Z,32.95
2023-01-18T19:19:39.149Z,32.88
2023-01-18T19:22:41.617Z,34.28
2023-01-18T19:25:44.078Z,30.92
2023-01-18T19:28:47.331Z,34.70
2023-01-18T19:31:49.570Z,36.92
2023-01-18T19:34:51.716Z,36.53
2023-01-18T19:37:54.180Z,33.72
2023-01-18T19:41:01.837Z,37.50
2023-01-18T19:44:04.289Z,34.55
2023-01-18T19:47:06.466Z,36.45
2023-01-18T19:50:09.076Z,35.00
2023-01-18T19:53:11.207Z,29.65
2023-01-18T19:56:13.393Z,33.95
2023-01-18T19:59:15.752Z,36.03
2023-01-18T20:02:18.268Z,31.92
2023-01-18T20:05:20.750Z,37.60
2023-01-18T20:08:23.055Z,32.45
2023-01-18T20:11:25.503Z,34.95
2023-01-18T20:14:40.424Z,32.20
2023-01-18T20:17:43.732Z,30.83
2023-01-18T20:20:45.890Z,32.28
2023-01-18T20:23:48.576Z,33.00
2023-01-18T20:26:50.702Z,34.10
2023-01-18T20:29:52.853Z,32.88
2023-01-18T20:32:55.223Z,31.83
2023-01-18T20:35:57.486Z,32.25
2023-01-18T20:38:59.667Z,31.90
2023-01-18T20:42:01.866Z,37.40
2023-01-18T20:45:04.919Z,32.13
2023-01-18T20:48:07.396Z,35.22
2023-01-18T20:51:09.741Z,33.90
2023-01-18T20:54:11.847Z,31.88
2023-01-18T20:57:14.024Z,33.30
2023-01-18T21:00:17.717Z,35.83
2023-01-18T21:03:21.264Z,37.60
2023-01-18T21:06:23.734Z,33.78
2023-01-18T21:09:26.395Z,31.73
2023-01-18T21:12:28.623Z,33.03
2023-01-18T21:15:30.774Z,34.58
2023-01-18T21:18:33.005Z,33.53
2023-01-18T21:21:36.067Z,35.33
2023-01-18T21:24:38.435Z,35.88
2023-01-18T21:27:43.329Z,35.10
2023-01-18T21:30:45.631Z,38.00
2023-01-18T21:33:47.714Z,33.28
2023-01-18T21:36:51.630Z,33.92
2023-01-18T21:39:53.947Z,34.97
2023-01-18T21:43:14.594Z,35.70
2023-01-18T21:46:16.951Z,32.80
2023-01-18T21:53:19.161Z,36.85
2023-01-18T21:56:21.893Z,31.98
2023-01-18T21:59:24.082Z,30.85
2023-01-18T22:02:26.498Z,36.22
2023-01-18T22:05:28.701Z,34.30
2023-01-18T22:08:31.016Z,34.88
2023-01-18T22:11:33.264Z,37.25
2023-01-18T22:14:35.442Z,36.67
2023-01-18T22:17:37.876Z,34.17
2023-01-18T22:20:40.078Z,30.25
2023-01-18T22:23:42.425Z,34.95
2023-01-18T22:26:45.587Z,36.00
2023-01-18T22:29:48.350Z,34.08
2023-01-18T22:32:50.505Z,35.15
2023-01-18T22:35:58.506Z,31.98
2023-01-18T22:39:00.827Z,35.58
2023-01-18T22:42:03.032Z,36.72
2023-01-18T22:45:05.616Z,33.33
2023-01-18T22:48:08.191Z,36.05
2023-01-18T22:51:13.375Z,33.78
2023-01-18T22:54:16.051Z,35.00
2023-01-18T22:57:18.390Z,34.88
2023-01-18T23:00:20.732Z,36.90
2023-01-18T23:03:23.521Z,34.50
2023-01-18T23:06:26.552Z,33.58
2023-01-18T23:09:29.455Z,34.50
2023-01-18T23:12:31.584Z,36.90
2023-01-18T23:15:52.237Z,34.10
2023-01-18T23:18:54.407Z,33.47
2023-01-18T23:21:56.879Z,35.35
2023-01-18T23:24:59.107Z,34.22
2023-01-18T23:28:03.411Z,32.33
2023-01-18T23:31:05.712Z,34.95
2023-01-18T23:34:08.269Z,34.22
2023-01-18T23:37:10.496Z,36.75
2023-01-18T23:40:31.321Z,35.55
2023-01-18T23:43:52.126Z,34.80
2023-01-18T23:47:12.903Z,35.72
2023-01-18T23:50:33.740Z,35.85
2023-01-18T23:53:54.591Z,32.63
2023-01-18T23:56:56.706Z,31.85
2023-01-18T23:59:59.152Z,34.88
